Aérodrome :
LOGIN :

S'inscrire | Disclaimer

   EN    FR    IT 

 










Légende :    VFR   VFR Marginal   IFR   IFR Intensif   IFR Très Intensif
Visi : 
Plafond : 
>= 8 km
>= 3000ft
5 à 8 km
1000 à 3000 ft
1500m à 5 km
500 à 1000 ft
800 à 1500m
200 à 500 ft
< 800m
< 200 ft
Symboles :   Orages  Brouillard  Fortes neiges  Fortes précipitations  Vent > 20 kt
SIGMETs :   Divers  Orages  Givrage  Turbulence  Onde Orograph.  Cendres Volcan.






- Altitude de l'aérodrome : 1548 ft


LKNA - Náměšť Air Base

DERNIER METAR :
  • 152100Z 13011KT CAVOK 14/12 Q1008 RMK BLU

METARs EXPIRÉS :
  • 152000Z 12011KT CAVOK 15/12 Q1008 NOSIG RMK BLU BLU
  • 151900Z 13012KT CAVOK 15/12 Q1008 NOSIG RMK BLU BLU

TAF TAF LKNA
Valide du 15 à 18h jusqu'au 16 à 18h UTC


151700Z 1518/1618 13012KT CAVOK
PROB30
TEMPO 1521/1606 3000 BR
BECMG 1606/1608 28008KT 9999 RA BKN035
TEMPO 1608/1614 7000 RA BKN020



MET'MAP, la Météo Aéronautique d'un coup d'oeil ! - Copyright ORBIFLY Décembre 2007 - Disclaimer

ORBIFLY MET'MAP TEAM :

Programmation & Développement : Alexandra Zaïnal
Conception & Développement : Baudouin d'Aumeries
Co-Programmation & Développement : Marc-Olivier Méhu
Soutien technique & logistique : Manuel Goepfert

Contact : metmap@orbifly.com




SOURCES & CREDITS :

   NOAA